Time;durP1;ratioP1;P1;durP2;ratioP2;P2;SDS_P1;SDS_P2;PMS_P1;PMS_P2;Temp;Humidity;BMP_temperature;BMP_pressure;BME280_temperature;BME280_humidity;BME280_pressure;Samples;Min_cycle;Max_cycle;Signal;HPM_P1;HPM_P2
2022/03/04 00:00:36;;;;;;;96.95;42.55;;;3.40;63.90;;;;;;4986203;28;20226;-82
2022/03/04 00:03:04;;;;;;;64.68;30.65;;;3.40;63.90;;;;;;4985989;28;20203;-82
2022/03/04 00:05:33;;;;;;;55.28;29.98;;;3.40;63.90;;;;;;4987195;28;20211;-83
2022/03/04 00:08:02;;;;;;;53.63;27.35;;;3.40;63.90;;;;;;4982367;28;20441;-83
2022/03/04 00:10:31;;;;;;;56.80;27.90;;;3.40;63.90;;;;;;4986236;28;20202;-82
2022/03/04 00:12:59;;;;;;;43.33;27.05;;;3.30;63.90;;;;;;4988486;28;20226;-82
2022/03/04 00:15:27;;;;;;;48.13;27.92;;;3.30;63.90;;;;;;4984513;28;20296;-81
2022/03/04 00:17:55;;;;;;;40.03;25.52;;;3.30;64.00;;;;;;4986377;28;20244;-82
2022/03/04 00:20:24;;;;;;;40.92;25.70;;;3.30;64.00;;;;;;5001685;28;20210;-83
2022/03/04 00:22:51;;;;;;;41.63;25.80;;;3.20;64.00;;;;;;4986321;28;20743;-83
2022/03/04 00:25:21;;;;;;;45.15;25.40;;;3.20;64.00;;;;;;5001644;28;20214;-82
2022/03/04 00:27:50;;;;;;;42.88;25.90;;;3.10;64.10;;;;;;4984798;28;20245;-82
2022/03/04 00:30:18;;;;;;;42.88;25.75;;;3.10;64.10;;;;;;4981896;28;20233;-82
2022/03/04 00:32:47;;;;;;;40.05;25.50;;;3.10;64.20;;;;;;4985186;28;20234;-82
2022/03/04 00:35:15;;;;;;;43.35;26.45;;;3.00;64.20;;;;;;4985666;28;20210;-82
2022/03/04 00:37:42;;;;;;;45.10;27.70;;;3.00;64.20;;;;;;4985785;28;20242;-83
2022/03/04 00:40:14;;;;;;;47.50;28.67;;;2.90;64.10;;;;;;5001153;28;20737;-82
2022/03/04 00:42:43;;;;;;;50.42;27.15;;;2.90;64.20;;;;;;5000437;28;20941;-83
2022/03/04 00:45:11;;;;;;;49.58;27.52;;;2.80;64.40;;;;;;4985509;28;20653;-83
2022/03/04 00:47:39;;;;;;;44.95;27.25;;;2.80;64.40;;;;;;5000265;28;20728;-82
2022/03/04 00:50:09;;;;;;;48.08;27.83;;;2.70;64.50;;;;;;4985858;28;20698;-82
2022/03/04 00:52:38;;;;;;;48.00;27.40;;;2.70;64.60;;;;;;4984547;28;20215;-81
2022/03/04 00:55:06;;;;;;;51.08;27.60;;;2.70;64.70;;;;;;4985762;28;20205;-82
2022/03/04 00:57:34;;;;;;;49.83;30.23;;;2.70;64.80;;;;;;4989168;28;20826;-83
2022/03/04 01:00:05;;;;;;;48.50;29.15;;;2.80;64.90;;;;;;4999983;28;20779;-82
2022/03/04 01:02:33;;;;;;;47.88;27.85;;;2.80;64.90;;;;;;4983998;28;20232;-82
2022/03/04 01:05:01;;;;;;;56.05;29.25;;;2.80;64.90;;;;;;4985437;28;20203;-82
2022/03/04 01:07:30;;;;;;;54.42;30.33;;;2.80;64.90;;;;;;4985064;28;21316;-82
2022/03/04 01:09:58;;;;;;;51.60;30.55;;;2.80;64.90;;;;;;4984542;28;20651;-81
2022/03/04 01:12:26;;;;;;;50.70;28.95;;;2.80;64.90;;;;;;4999532;28;20245;-83
2022/03/04 01:14:55;;;;;;;48.05;30.40;;;2.70;65.00;;;;;;4982370;28;20214;-84
2022/03/04 01:17:25;;;;;;;43.90;26.67;;;2.70;65.00;;;;;;4983010;28;20230;-83
2022/03/04 01:19:53;;;;;;;46.78;28.27;;;2.70;65.00;;;;;;4985181;28;20213;-82
2022/03/04 01:22:21;;;;;;;44.55;27.25;;;2.70;65.10;;;;;;4980735;28;20265;-83
2022/03/04 01:24:50;;;;;;;42.10;26.85;;;2.70;65.10;;;;;;4999024;28;20257;-83
2022/03/04 01:27:18;;;;;;;44.78;24.90;;;2.60;65.10;;;;;;4999057;28;21018;-82
2022/03/04 01:29:46;;;;;;;41.33;27.85;;;2.60;65.10;;;;;;4983996;28;20689;-84
2022/03/04 01:32:14;;;;;;;44.40;26.90;;;2.60;65.20;;;;;;4983826;28;20424;-83
2022/03/04 01:34:43;;;;;;;45.58;26.73;;;2.60;65.20;;;;;;4998629;28;20630;-83
2022/03/04 01:37:11;;;;;;;43.38;25.73;;;2.60;65.20;;;;;;4982628;28;20230;-83
2022/03/04 01:39:39;;;;;;;50.08;27.73;;;2.50;65.20;;;;;;4984660;28;20195;-84
2022/03/04 01:42:08;;;;;;;42.78;25.33;;;2.50;65.30;;;;;;4983406;28;21064;-85
2022/03/04 01:44:36;;;;;;;46.72;27.10;;;2.50;65.30;;;;;;4983577;28;20562;-81
2022/03/04 01:47:05;;;;;;;51.05;28.90;;;2.50;65.40;;;;;;4982471;28;21075;-81
2022/03/04 01:49:33;;;;;;;43.88;26.05;;;2.50;65.40;;;;;;4984370;28;20202;-83
2022/03/04 01:52:03;;;;;;;43.55;26.33;;;2.40;65.40;;;;;;4996659;28;20622;-83
2022/03/04 01:54:31;;;;;;;52.33;29.02;;;2.40;65.50;;;;;;4980457;28;20935;-84
2022/03/04 01:57:00;;;;;;;44.33;26.80;;;2.40;65.50;;;;;;4981789;28;20206;-81
2022/03/04 01:59:28;;;;;;;40.67;25.35;;;2.40;65.60;;;;;;4984093;28;20727;-82
2022/03/04 02:01:56;;;;;;;52.55;27.23;;;2.40;65.60;;;;;;4983323;28;20572;-82
2022/03/04 02:04:25;;;;;;;45.92;24.70;;;2.30;65.60;;;;;;4984812;28;20286;-82
2022/03/04 02:06:54;;;;;;;42.58;25.15;;;2.30;65.70;;;;;;4980257;28;20216;-82
2022/03/04 02:09:23;;;;;;;45.90;26.08;;;2.30;65.70;;;;;;4984466;28;20206;-83
2022/03/04 02:11:52;;;;;;;41.20;23.10;;;2.30;65.70;;;;;;4984133;28;20210;-82
2022/03/04 02:14:20;;;;;;;43.03;26.00;;;2.30;65.80;;;;;;4982093;28;20300;-80
2022/03/04 02:16:50;;;;;;;48.40;26.15;;;2.30;65.80;;;;;;4983717;28;20242;-84
2022/03/04 02:19:20;;;;;;;46.25;28.33;;;2.30;65.80;;;;;;4998716;28;20630;-84
2022/03/04 02:21:52;;;;;;;47.95;25.13;;;2.20;65.90;;;;;;4988640;28;20782;-83
2022/03/04 02:24:22;;;;;;;44.55;27.92;;;2.20;65.90;;;;;;4989516;28;20190;-83
2022/03/04 02:26:50;;;;;;;45.72;26.65;;;2.20;66.00;;;;;;4991111;28;20230;-82
2022/03/04 02:29:18;;;;;;;45.28;24.70;;;2.20;66.00;;;;;;4989288;28;20304;-82
2022/03/04 02:31:48;;;;;;;42.60;25.42;;;2.30;66.10;;;;;;4989585;28;20234;-82
2022/03/04 02:34:16;;;;;;;39.85;25.52;;;2.30;66.10;;;;;;5000560;28;20746;-82
2022/03/04 02:36:45;;;;;;;45.13;25.92;;;2.30;66.10;;;;;;4990051;28;20209;-81
2022/03/04 02:39:14;;;;;;;45.38;27.55;;;2.30;66.10;;;;;;4991400;28;20900;-82
2022/03/04 02:41:43;;;;;;;45.55;26.25;;;2.30;66.10;;;;;;4990502;28;20194;-83
2022/03/04 02:44:12;;;;;;;44.35;26.42;;;2.30;66.10;;;;;;4988702;28;20210;-82
2022/03/04 02:46:41;;;;;;;42.70;25.65;;;2.30;66.10;;;;;;5005217;28;20230;-83
2022/03/04 02:49:10;;;;;;;40.92;23.33;;;2.20;66.10;;;;;;4989999;28;20248;-83
2022/03/04 02:51:39;;;;;;;40.70;24.27;;;2.20;66.00;;;;;;5006383;28;20607;-83
2022/03/04 02:54:08;;;;;;;46.67;26.33;;;2.20;66.00;;;;;;4989611;28;20226;-82
2022/03/04 02:56:37;;;;;;;43.95;24.30;;;2.10;66.00;;;;;;4994384;28;20215;-83
2022/03/04 02:59:05;;;;;;;42.17;25.77;;;2.10;66.00;;;;;;5007443;28;20238;-83
2022/03/04 03:01:33;;;;;;;42.95;24.73;;;2.10;66.10;;;;;;5006078;28;20238;-84
2022/03/04 03:04:02;;;;;;;47.08;26.45;;;2.10;66.10;;;;;;4992407;28;20286;-84
2022/03/04 03:06:30;;;;;;;44.10;27.27;;;2.10;66.10;;;;;;4991276;28;20602;-83
2022/03/04 03:08:58;;;;;;;50.47;30.40;;;2.00;66.00;;;;;;4990412;28;20448;-82
2022/03/04 03:11:26;;;;;;;44.60;27.05;;;1.90;65.90;;;;;;4988453;28;20202;-83
2022/03/04 03:13:56;;;;;;;45.13;26.90;;;1.90;66.00;;;;;;4988356;28;20391;-83
2022/03/04 03:16:24;;;;;;;46.10;26.42;;;1.90;66.00;;;;;;5005015;28;20252;-83
2022/03/04 03:18:52;;;;;;;53.92;30.35;;;1.80;66.10;;;;;;4989472;28;20292;-83
2022/03/04 03:21:20;;;;;;;45.10;27.17;;;1.80;66.10;;;;;;5003693;28;20219;-84
2022/03/04 03:23:48;;;;;;;49.97;27.55;;;1.70;66.10;;;;;;4988728;28;20202;-82
2022/03/04 03:26:16;;;;;;;46.45;26.00;;;1.70;66.10;;;;;;4993340;28;20222;-83
2022/03/04 03:28:44;;;;;;;46.58;27.10;;;1.60;66.10;;;;;;4989825;28;20814;-84
2022/03/04 03:31:13;;;;;;;46.50;26.75;;;1.50;66.10;;;;;;5004188;28;20238;-83
2022/03/04 03:33:43;;;;;;;54.05;29.45;;;1.50;66.20;;;;;;4982590;28;20199;-83
2022/03/04 03:36:11;;;;;;;51.28;29.08;;;1.50;66.20;;;;;;5002497;28;20691;-83
2022/03/04 03:38:40;;;;;;;54.30;30.38;;;1.50;66.20;;;;;;4993111;28;20664;-80
2022/03/04 03:41:09;;;;;;;50.83;30.00;;;1.40;66.30;;;;;;4987671;28;20202;-80
2022/03/04 03:43:41;;;;;;;51.95;31.63;;;1.40;66.30;;;;;;4986584;28;20282;-80
2022/03/04 03:46:11;;;;;;;50.45;28.33;;;1.40;66.30;;;;;;4990008;28;20752;-80
2022/03/04 03:48:41;;;;;;;46.92;27.30;;;1.30;66.40;;;;;;5002928;28;20223;-80
2022/03/04 03:51:11;;;;;;;56.45;30.08;;;1.30;66.40;;;;;;4988129;28;20242;-80
2022/03/04 03:53:41;;;;;;;50.65;29.25;;;1.30;66.40;;;;;;4985819;28;20291;-80
2022/03/04 03:56:09;;;;;;;51.55;27.40;;;1.30;66.50;;;;;;4986298;28;20219;-81
2022/03/04 03:58:38;;;;;;;52.97;29.10;;;1.30;66.50;;;;;;4987454;28;20293;-82
2022/03/04 04:01:07;;;;;;;46.78;26.75;;;1.30;66.50;;;;;;5002395;28;20234;-82
2022/03/04 04:03:36;;;;;;;43.65;27.10;;;1.30;66.70;;;;;;4986446;28;20224;-80
2022/03/04 04:06:07;;;;;;;50.83;27.10;;;1.30;66.70;;;;;;4989262;28;20297;-82
2022/03/04 04:08:35;;;;;;;44.50;27.58;;;1.30;66.80;;;;;;4984588;28;20229;-82
2022/03/04 04:11:05;;;;;;;46.85;26.88;;;1.30;66.80;;;;;;4988435;28;20206;-83
2022/03/04 04:13:33;;;;;;;42.85;25.60;;;1.30;66.90;;;;;;4986153;28;20742;-84
2022/03/04 04:16:02;;;;;;;49.72;27.98;;;1.30;66.90;;;;;;4993456;28;20243;-82
2022/03/04 04:18:30;;;;;;;49.50;27.33;;;1.30;66.80;;;;;;4986404;28;20304;-83
2022/03/04 04:21:06;;;;;;;49.20;29.38;;;1.30;66.80;;;;;;5001347;28;20293;-82
2022/03/04 04:23:35;;;;;;;46.95;27.00;;;1.20;66.80;;;;;;4986050;28;20221;-83
2022/03/04 04:26:05;;;;;;;50.20;28.45;;;1.20;66.80;;;;;;4985392;28;20771;-83
2022/03/04 04:28:33;;;;;;;45.10;26.83;;;1.20;66.80;;;;;;4984353;28;20223;-83
2022/03/04 04:31:02;;;;;;;58.58;29.92;;;1.20;66.90;;;;;;4984165;28;20238;-83
2022/03/04 04:33:31;;;;;;;60.45;29.80;;;1.20;66.90;;;;;;4985155;28;20199;-82
2022/03/04 04:35:59;;;;;;;50.75;27.70;;;1.10;66.90;;;;;;4986586;28;20222;-82
2022/03/04 04:38:28;;;;;;;48.67;27.73;;;1.10;66.90;;;;;;4985889;28;20265;-83
2022/03/04 04:40:57;;;;;;;47.70;27.75;;;1.10;66.90;;;;;;5005162;28;20206;-83
2022/03/04 04:43:25;;;;;;;48.92;26.95;;;1.00;66.90;;;;;;5002853;28;20261;-83
2022/03/04 04:45:53;;;;;;;65.05;31.30;;;1.00;66.90;;;;;;5000554;28;20239;-82
2022/03/04 04:48:21;;;;;;;63.65;31.35;;;0.90;66.90;;;;;;4982214;28;20233;-83
2022/03/04 04:50:49;;;;;;;48.45;27.40;;;0.90;66.90;;;;;;4985399;28;20214;-82
2022/03/04 04:53:17;;;;;;;49.75;27.35;;;0.90;67.10;;;;;;4985735;28;20918;-83
2022/03/04 04:55:46;;;;;;;58.45;29.42;;;0.90;67.10;;;;;;4984712;28;20238;-82
2022/03/04 04:58:14;;;;;;;59.30;28.35;;;0.90;67.10;;;;;;4995114;28;20250;-83
2022/03/04 05:00:42;;;;;;;53.58;28.75;;;0.90;67.20;;;;;;5000886;28;21144;-83
2022/03/04 05:03:11;;;;;;;54.35;30.02;;;0.90;67.20;;;;;;4998591;28;20226;-84
2022/03/04 05:05:40;;;;;;;55.78;28.35;;;0.80;67.10;;;;;;4991214;28;20305;-82
2022/03/04 05:08:08;;;;;;;48.58;27.77;;;0.80;67.10;;;;;;4979993;28;20235;-82
2022/03/04 05:10:37;;;;;;;46.75;27.25;;;0.80;67.20;;;;;;4983076;28;20750;-82
2022/03/04 05:13:07;;;;;;;53.67;30.08;;;0.80;67.20;;;;;;4983286;28;20671;-83
2022/03/04 05:15:35;;;;;;;58.60;33.33;;;0.80;67.30;;;;;;4985146;28;20234;-83
2022/03/04 05:18:03;;;;;;;55.42;31.60;;;0.80;67.20;;;;;;4986422;28;20251;-83
2022/03/04 05:20:32;;;;;;;54.90;29.75;;;0.80;67.20;;;;;;4986030;28;20233;-83
2022/03/04 05:22:59;;;;;;;52.17;30.65;;;0.70;67.20;;;;;;4984205;28;20212;-83
2022/03/04 05:25:27;;;;;;;49.78;28.23;;;0.70;67.30;;;;;;4986230;28;20281;-83
2022/03/04 05:27:55;;;;;;;47.08;28.63;;;0.70;67.40;;;;;;4985612;28;20289;-83
2022/03/04 05:30:25;;;;;;;47.20;29.35;;;0.70;67.40;;;;;;4981092;28;20904;-82
2022/03/04 05:32:53;;;;;;;64.15;33.78;;;0.70;67.50;;;;;;4982212;28;20615;-83
2022/03/04 05:35:21;;;;;;;53.20;30.10;;;0.80;67.40;;;;;;4999741;28;20270;-83
2022/03/04 05:37:49;;;;;;;43.72;26.83;;;0.70;67.30;;;;;;4985167;28;20237;-82
2022/03/04 05:40:17;;;;;;;57.30;29.73;;;0.70;67.40;;;;;;5000625;28;20222;-83
2022/03/04 05:42:45;;;;;;;51.85;30.02;;;0.70;67.50;;;;;;4994637;28;20214;-83
2022/03/04 05:45:13;;;;;;;51.10;30.50;;;0.60;67.50;;;;;;4984776;28;20203;-82
2022/03/04 05:47:42;;;;;;;54.85;29.80;;;0.60;67.60;;;;;;4984981;28;20222;-83
2022/03/04 05:50:10;;;;;;;52.47;30.70;;;0.60;67.60;;;;;;4984533;28;20206;-83
2022/03/04 05:52:38;;;;;;;50.40;29.45;;;0.60;67.70;;;;;;4984391;28;20214;-83
2022/03/04 05:55:08;;;;;;;53.35;31.88;;;0.60;67.70;;;;;;4996261;28;20261;-84
2022/03/04 05:57:35;;;;;;;59.22;35.15;;;0.60;67.70;;;;;;4986947;28;20219;-83
2022/03/04 06:00:05;;;;;;;58.90;32.50;;;0.60;67.80;;;;;;4986263;28;20211;-83
2022/03/04 06:02:33;;;;;;;63.35;34.63;;;0.60;67.80;;;;;;4982325;28;20361;-83
2022/03/04 06:05:03;;;;;;;69.47;37.80;;;0.60;67.80;;;;;;4986657;28;20249;-82
2022/03/04 06:07:33;;;;;;;64.40;38.55;;;0.60;67.90;;;;;;4985333;28;20273;-82
2022/03/04 06:10:02;;;;;;;67.22;38.25;;;0.60;67.90;;;;;;4988567;28;20543;-82
2022/03/04 06:12:30;;;;;;;69.07;37.10;;;0.60;68.10;;;;;;4988158;28;20214;-83
2022/03/04 06:14:58;;;;;;;60.10;34.85;;;0.70;68.20;;;;;;5003613;28;20285;-81
2022/03/04 06:17:26;;;;;;;62.95;35.72;;;0.70;68.30;;;;;;4991467;28;20218;-82
2022/03/04 06:19:53;;;;;;;66.78;34.78;;;0.80;68.50;;;;;;5005648;28;20202;-83
2022/03/04 06:22:23;;;;;;;69.50;38.72;;;0.90;68.50;;;;;;5005695;28;20861;-83
2022/03/04 06:24:51;;;;;;;59.15;35.85;;;0.90;68.60;;;;;;5005087;28;20226;-83
2022/03/04 06:27:18;;;;;;;69.03;38.95;;;1.00;68.60;;;;;;4989112;28;20280;-83
2022/03/04 06:29:46;;;;;;;68.40;36.25;;;1.00;68.60;;;;;;4988435;28;20711;-83
2022/03/04 06:32:15;;;;;;;70.82;37.22;;;1.00;68.70;;;;;;4987357;28;20260;-82
2022/03/04 06:34:43;;;;;;;66.78;36.83;;;1.10;68.80;;;;;;4985714;28;20671;-82
2022/03/04 06:37:12;;;;;;;69.28;38.55;;;1.10;68.80;;;;;;4985445;28;20261;-83
2022/03/04 06:39:41;;;;;;;67.88;39.40;;;1.10;68.80;;;;;;4993978;28;20214;-82
2022/03/04 06:42:10;;;;;;;64.75;35.28;;;1.20;68.80;;;;;;4983296;28;20214;-83
2022/03/04 06:44:38;;;;;;;71.03;39.67;;;1.20;69.10;;;;;;4988400;28;20202;-83
2022/03/04 06:47:07;;;;;;;67.65;37.50;;;1.30;69.10;;;;;;4987445;28;20238;-82
2022/03/04 06:49:35;;;;;;;75.78;40.38;;;1.30;69.20;;;;;;4983017;28;20276;-83
2022/03/04 06:52:04;;;;;;;83.07;42.22;;;1.40;69.00;;;;;;4999687;28;20214;-83
2022/03/04 06:54:33;;;;;;;87.97;45.35;;;1.40;69.10;;;;;;4984056;28;20201;-83
2022/03/04 06:57:02;;;;;;;92.70;45.65;;;1.50;69.10;;;;;;4978980;28;20234;-82
2022/03/04 06:59:30;;;;;;;84.50;45.42;;;1.50;69.10;;;;;;4999800;28;20297;-83
2022/03/04 07:01:59;;;;;;;81.53;41.15;;;1.50;69.20;;;;;;4984987;28;20238;-81
2022/03/04 07:04:27;;;;;;;78.20;40.20;;;1.50;69.30;;;;;;4997787;28;20304;-82
2022/03/04 07:06:55;;;;;;;80.25;42.97;;;1.50;69.30;;;;;;4983834;28;20705;-81
2022/03/04 07:09:23;;;;;;;100.22;48.20;;;1.50;69.60;;;;;;5003757;28;20463;-81
2022/03/04 07:11:50;;;;;;;110.95;48.80;;;1.60;69.50;;;;;;4987109;28;20214;-82
2022/03/04 07:14:20;;;;;;;110.90;51.58;;;1.60;69.80;;;;;;4992261;28;20750;-82
2022/03/04 07:16:48;;;;;;;91.53;45.17;;;1.60;69.90;;;;;;4983414;28;20242;-82
2022/03/04 07:19:16;;;;;;;90.60;45.08;;;1.60;69.90;;;;;;4986448;28;20246;-82
2022/03/04 07:21:44;;;;;;;84.53;42.85;;;1.70;69.90;;;;;;4986313;28;20273;-82
2022/03/04 07:24:12;;;;;;;86.00;42.42;;;1.70;70.00;;;;;;4983489;28;20203;-81
2022/03/04 07:26:39;;;;;;;101.65;44.35;;;1.80;70.10;;;;;;4987619;28;20203;-81
2022/03/04 07:29:07;;;;;;;80.25;40.80;;;1.80;70.30;;;;;;5001856;28;20226;-81
2022/03/04 07:31:37;;;;;;;87.50;43.08;;;1.90;70.30;;;;;;5001018;28;20242;-82
2022/03/04 07:34:05;;;;;;;72.93;39.50;;;1.90;70.30;;;;;;4988974;28;20210;-82
2022/03/04 07:36:33;;;;;;;86.65;41.50;;;1.90;70.50;;;;;;4986591;28;20817;-82
2022/03/04 07:39:01;;;;;;;79.38;43.95;;;2.00;70.60;;;;;;4987580;28;20750;-82
2022/03/04 07:41:29;;;;;;;81.82;41.70;;;2.10;70.70;;;;;;5007691;28;20233;-82
2022/03/04 07:43:59;;;;;;;79.03;41.45;;;2.10;70.70;;;;;;4994670;28;20206;-82
2022/03/04 07:46:27;;;;;;;86.25;43.95;;;2.20;70.70;;;;;;4985621;28;20269;-82
2022/03/04 07:48:56;;;;;;;79.30;41.90;;;2.20;70.70;;;;;;5001255;28;20313;-82
2022/03/04 07:51:25;;;;;;;85.95;42.88;;;2.20;71.00;;;;;;5001880;28;20217;-82
2022/03/04 07:53:53;;;;;;;84.63;44.53;;;2.20;71.30;;;;;;4986374;28;20203;-82
2022/03/04 07:56:21;;;;;;;82.53;42.50;;;2.20;71.10;;;;;;4986417;28;20211;-82
2022/03/04 07:58:49;;;;;;;89.13;44.40;;;2.20;71.30;;;;;;4985761;28;20230;-82
2022/03/04 08:01:17;;;;;;;80.13;44.00;;;2.30;71.20;;;;;;4985781;28;20238;-82
2022/03/04 08:03:51;;;;;;;86.85;44.50;;;2.30;71.30;;;;;;4999343;28;20762;-83
2022/03/04 08:06:22;;;;;;;82.80;42.45;;;2.40;71.30;;;;;;4984870;28;20221;-82
2022/03/04 08:08:50;;;;;;;82.38;42.08;;;2.40;71.30;;;;;;4984229;28;20222;-82
2022/03/04 08:11:17;;;;;;;92.32;46.97;;;2.40;71.40;;;;;;5001053;28;20588;-83
2022/03/04 08:13:45;;;;;;;83.28;44.20;;;2.50;71.50;;;;;;4997798;28;20203;-83
2022/03/04 08:16:13;;;;;;;92.50;45.00;;;2.40;71.70;;;;;;4987473;28;20237;-82
2022/03/04 08:18:41;;;;;;;80.20;43.63;;;2.40;71.70;;;;;;4981569;28;20223;-82
2022/03/04 08:21:11;;;;;;;78.40;40.38;;;2.40;72.00;;;;;;4981491;28;20239;-83
2022/03/04 08:23:41;;;;;;;87.13;46.80;;;2.50;71.80;;;;;;4980592;28;20209;-82
2022/03/04 08:26:09;;;;;;;83.50;45.63;;;2.50;71.70;;;;;;4981771;28;20203;-82
2022/03/04 08:28:37;;;;;;;96.65;48.80;;;2.50;71.80;;;;;;4982742;28;20244;-83
2022/03/04 08:31:10;;;;;;;86.32;44.47;;;2.60;71.90;;;;;;4999585;28;20825;-82
2022/03/04 08:33:41;;;;;;;93.97;45.03;;;2.70;71.80;;;;;;4982758;28;20201;-83
2022/03/04 08:36:09;;;;;;;94.93;43.90;;;2.70;71.80;;;;;;5000772;28;20198;-83
2022/03/04 08:38:37;;;;;;;92.05;45.15;;;2.70;72.30;;;;;;4985304;28;20230;-82
2022/03/04 08:41:07;;;;;;;82.07;44.78;;;2.80;72.00;;;;;;4986061;28;20206;-83
2022/03/04 08:43:35;;;;;;;74.60;42.30;;;2.80;72.10;;;;;;4982510;28;21520;-82
2022/03/04 08:46:04;;;;;;;85.78;40.90;;;2.80;72.00;;;;;;4998405;28;20978;-84
2022/03/04 08:48:32;;;;;;;82.68;42.75;;;2.90;71.90;;;;;;4982872;28;20305;-83
2022/03/04 08:51:01;;;;;;;87.40;44.72;;;2.90;71.90;;;;;;4984881;28;20215;-84
2022/03/04 08:53:30;;;;;;;81.38;46.05;;;3.00;72.00;;;;;;4982145;28;20253;-83
2022/03/04 08:55:58;;;;;;;78.57;41.75;;;3.00;72.20;;;;;;4983946;28;20257;-83
2022/03/04 08:58:27;;;;;;;75.22;41.55;;;3.00;72.00;;;;;;4985351;28;20226;-81
2022/03/04 09:00:56;;;;;;;72.25;40.03;;;3.00;71.90;;;;;;4998981;28;20245;-83
2022/03/04 09:03:24;;;;;;;81.70;41.85;;;3.10;71.90;;;;;;4999530;28;20215;-83
2022/03/04 09:05:52;;;;;;;71.30;40.20;;;3.10;72.00;;;;;;4998433;28;20607;-83
2022/03/04 09:08:20;;;;;;;77.32;40.35;;;3.20;72.10;;;;;;4999777;28;20227;-82
2022/03/04 09:10:48;;;;;;;71.30;39.80;;;3.20;72.00;;;;;;4999579;28;20215;-82
2022/03/04 09:13:16;;;;;;;79.18;41.83;;;3.30;72.00;;;;;;4983797;28;20203;-82
2022/03/04 09:15:45;;;;;;;68.47;39.33;;;3.30;71.90;;;;;;4983894;28;20234;-82
2022/03/04 09:18:13;;;;;;;69.78;39.67;;;3.30;72.10;;;;;;4985366;28;20669;-82
2022/03/04 09:20:42;;;;;;;79.28;41.80;;;3.40;71.80;;;;;;4983799;28;20203;-82
2022/03/04 09:23:10;;;;;;;73.53;38.33;;;3.40;71.80;;;;;;4986260;28;20206;-82
2022/03/04 09:25:38;;;;;;;73.38;35.95;;;3.40;71.70;;;;;;4983607;28;20256;-82
2022/03/04 09:28:06;;;;;;;73.32;38.40;;;3.40;71.70;;;;;;4985104;28;20227;-82
2022/03/04 09:30:36;;;;;;;79.15;42.55;;;3.50;71.70;;;;;;4981823;28;20235;-84
2022/03/04 09:33:05;;;;;;;71.07;38.45;;;3.50;71.70;;;;;;4982961;28;20207;-84
2022/03/04 09:35:33;;;;;;;61.35;37.17;;;3.60;71.70;;;;;;5000300;28;20214;-83
2022/03/04 09:38:01;;;;;;;65.28;35.35;;;3.60;71.60;;;;;;4984836;28;20229;-83
2022/03/04 09:40:32;;;;;;;61.00;34.00;;;3.60;71.60;;;;;;5000216;28;20938;-85
2022/03/04 09:43:01;;;;;;;64.45;37.25;;;3.60;71.50;;;;;;4982649;28;20225;-83
2022/03/04 09:45:30;;;;;;;74.13;38.03;;;3.70;71.50;;;;;;4981426;28;20238;-83
2022/03/04 09:47:58;;;;;;;64.53;37.03;;;3.70;71.50;;;;;;4982037;28;20245;-83
2022/03/04 09:50:28;;;;;;;62.55;34.17;;;3.70;71.40;;;;;;4985342;28;20199;-81
2022/03/04 09:52:56;;;;;;;72.03;36.38;;;3.70;71.40;;;;;;4999089;28;20241;-84
2022/03/04 09:55:24;;;;;;;68.10;37.90;;;3.70;71.40;;;;;;4988560;28;20266;-83
2022/03/04 09:57:52;;;;;;;64.72;37.95;;;3.80;71.40;;;;;;4988445;28;20231;-84
2022/03/04 10:00:20;;;;;;;70.15;37.15;;;3.80;71.40;;;;;;4981312;28;20207;-84
2022/03/04 10:02:48;;;;;;;67.45;35.22;;;3.80;71.40;;;;;;4984394;28;20806;-84
2022/03/04 10:05:17;;;;;;;69.35;36.58;;;3.80;71.40;;;;;;4988970;28;20739;-83
2022/03/04 10:07:49;;;;;;;63.80;35.00;;;3.90;71.40;;;;;;4984288;28;20375;-83
2022/03/04 10:10:18;;;;;;;60.85;33.72;;;3.90;71.30;;;;;;5000400;28;20218;-83
2022/03/04 10:12:49;;;;;;;62.67;34.15;;;3.90;71.30;;;;;;4999155;28;20233;-83
2022/03/04 10:15:17;;;;;;;64.55;34.90;;;4.00;71.20;;;;;;4983498;28;20226;-83
2022/03/04 10:17:58;;;;;;;61.33;35.72;;;4.00;71.10;;;;;;4999257;28;20780;-83
2022/03/04 10:20:35;;;;;;;64.90;34.75;;;4.00;71.20;;;;;;4995395;28;20210;-83
2022/03/04 10:23:13;;;;;;;62.42;35.65;;;4.10;71.20;;;;;;4998704;28;20209;-82
2022/03/04 10:25:44;;;;;;;71.00;35.85;;;4.10;71.20;;;;;;4984834;28;20194;-82
2022/03/04 10:28:13;;;;;;;67.40;34.45;;;4.10;71.00;;;;;;4999119;28;20911;-83
2022/03/04 10:30:45;;;;;;;65.45;32.55;;;4.10;71.00;;;;;;4983676;28;20237;-84
2022/03/04 10:33:16;;;;;;;59.20;31.05;;;4.20;71.00;;;;;;4978052;28;20206;-83
2022/03/04 10:35:45;;;;;;;62.42;30.13;;;4.10;70.50;;;;;;4987574;28;20271;-84
2022/03/04 10:38:24;;;;;;;52.42;31.40;;;4.10;70.80;;;;;;4983474;28;20253;-84
2022/03/04 10:40:52;;;;;;;59.45;30.55;;;4.10;70.70;;;;;;4983844;28;20194;-84
2022/03/04 10:43:29;;;;;;;51.17;29.30;;;4.20;70.90;;;;;;4986093;28;20199;-83
2022/03/04 10:46:03;;;;;;;56.53;29.80;;;4.30;70.40;;;;;;5002285;28;20234;-84
2022/03/04 10:48:32;;;;;;;60.03;28.55;;;4.30;70.80;;;;;;4986738;28;20261;-83
2022/03/04 10:51:05;;;;;;;50.53;27.33;;;4.40;70.90;;;;;;4987290;28;20301;-84
2022/03/04 10:53:35;;;;;;;47.80;26.55;;;4.50;70.60;;;;;;4986558;28;20210;-84
2022/03/04 10:56:04;;;;;;;51.63;27.58;;;4.50;70.50;;;;;;4999307;28;20699;-84
2022/03/04 10:58:38;;;;;;;50.05;27.90;;;4.60;70.50;;;;;;5001673;28;20224;-83
2022/03/04 11:01:09;;;;;;;52.35;27.63;;;4.70;70.70;;;;;;4986964;28;20241;-84
2022/03/04 11:03:41;;;;;;;44.75;25.85;;;4.80;70.60;;;;;;5001283;28;20233;-82
2022/03/04 11:06:12;;;;;;;44.25;24.88;;;4.80;70.40;;;;;;5001355;28;20225;-82
2022/03/04 11:08:42;;;;;;;44.47;24.60;;;4.80;70.10;;;;;;4986556;28;20238;-82
2022/03/04 11:11:11;;;;;;;42.08;21.67;;;4.90;70.20;;;;;;5002180;28;20214;-82
2022/03/04 11:13:39;;;;;;;55.03;25.67;;;4.90;70.00;;;;;;4990630;28;20203;-82
2022/03/04 11:16:08;;;;;;;48.05;25.85;;;5.00;69.80;;;;;;5001139;28;20230;-82
2022/03/04 11:18:37;;;;;;;41.63;23.55;;;5.00;69.80;;;;;;4989194;28;20308;-83
2022/03/04 11:21:06;;;;;;;36.60;19.67;;;5.10;69.60;;;;;;4987687;28;20229;-82
2022/03/04 11:23:36;;;;;;;39.42;20.50;;;5.10;69.70;;;;;;4984315;28;20753;-80
2022/03/04 11:26:09;;;;;;;36.75;19.95;;;5.10;69.50;;;;;;4983589;28;20704;-81
2022/03/04 11:28:39;;;;;;;41.60;21.83;;;5.20;69.30;;;;;;4984336;28;20219;-82
2022/03/04 11:31:09;;;;;;;39.70;21.80;;;5.20;69.00;;;;;;4986520;28;20231;-82
2022/03/04 11:33:41;;;;;;;43.60;22.40;;;5.30;69.00;;;;;;4985680;28;20203;-82
2022/03/04 11:36:13;;;;;;;34.85;18.70;;;5.30;68.80;;;;;;4978170;28;20930;-82
2022/03/04 11:39:07;;;;;;;36.03;18.35;;;5.30;68.40;;;;;;4986030;28;20247;-82
2022/03/04 11:42:10;;;;;;;47.28;23.95;;;5.30;68.70;;;;;;4982049;28;20190;-82
2022/03/04 11:44:55;;;;;;;30.10;16.92;;;5.30;68.40;;;;;;4983907;28;20973;-82
2022/03/04 11:47:23;;;;;;;34.38;19.77;;;5.40;68.30;;;;;;4983759;28;20234;-81
2022/03/04 11:49:51;;;;;;;42.42;20.73;;;5.40;68.40;;;;;;4989136;28;20202;-83
2022/03/04 11:52:24;;;;;;;34.80;19.65;;;5.50;68.30;;;;;;5002074;28;20722;-85
2022/03/04 11:55:21;;;;;;;41.75;20.95;;;5.50;68.10;;;;;;4984235;28;20206;-85
2022/03/04 11:58:02;;;;;;;39.00;20.10;;;5.60;68.00;;;;;;4985648;28;20696;-83
2022/03/04 12:00:34;;;;;;;30.48;16.73;;;5.70;67.90;;;;;;4989280;28;20241;-85
2022/03/04 12:03:21;;;;;;;29.73;16.88;;;5.70;67.90;;;;;;4980524;28;20250;-86
2022/03/04 12:05:51;;;;;;;32.05;14.75;;;5.70;67.70;;;;;;5000737;28;20595;-84
2022/03/04 12:08:19;;;;;;;39.90;19.80;;;5.70;67.50;;;;;;4998892;28;20226;-84
2022/03/04 12:10:53;;;;;;;33.15;15.63;;;5.80;67.20;;;;;;4984983;28;20694;-84
2022/03/04 12:13:24;;;;;;;25.80;13.20;;;5.80;66.90;;;;;;4984069;28;20285;-85
2022/03/04 12:16:03;;;;;;;28.13;14.32;;;5.80;67.10;;;;;;4983044;28;20268;-82
2022/03/04 12:18:37;;;;;;;24.45;12.02;;;5.90;66.80;;;;;;4982209;28;20309;-83
2022/03/04 12:21:13;;;;;;;20.58;12.13;;;6.00;66.70;;;;;;4981877;28;20680;-81
2022/03/04 12:23:54;;;;;;;22.92;11.68;;;6.10;66.30;;;;;;4983556;28;20190;-82
2022/03/04 12:26:43;;;;;;;24.08;12.95;;;6.10;66.00;;;;;;4984217;28;20219;-81
2022/03/04 12:29:14;;;;;;;24.17;15.15;;;6.10;65.60;;;;;;4985237;28;20229;-82
2022/03/04 12:31:45;;;;;;;29.90;13.82;;;6.10;65.60;;;;;;4997787;28;20707;-82
2022/03/04 12:34:22;;;;;;;25.42;13.48;;;6.10;64.60;;;;;;4980535;28;20207;-81
2022/03/04 12:36:53;;;;;;;26.23;13.60;;;6.20;64.90;;;;;;5000076;28;20210;-80
2022/03/04 12:39:22;;;;;;;26.13;12.85;;;6.20;65.00;;;;;;4983440;28;21761;-83
2022/03/04 12:41:55;;;;;;;22.90;11.93;;;6.20;64.90;;;;;;4988608;28;20206;-82
2022/03/04 12:44:23;;;;;;;24.77;12.35;;;6.30;64.50;;;;;;4984296;28;20880;-83
2022/03/04 12:46:53;;;;;;;21.60;12.02;;;6.30;64.20;;;;;;4986298;28;20242;-82